sensor_id;sensor_type;location;lat;lon;timestamp;pressure;altitude;pressure_sealevel;temperature;humidity
71145;BME280;58812;47.698;17.726;2023-03-20T00:00:30;100238.31;;;6.46;72.56
71145;BME280;58812;47.698;17.726;2023-03-20T00:02:56;100239.41;;;6.32;73.15
71145;BME280;58812;47.698;17.726;2023-03-20T00:05:23;100241.09;;;6.33;72.79
71145;BME280;58812;47.698;17.726;2023-03-20T00:07:49;100246.78;;;6.40;72.80
71145;BME280;58812;47.698;17.726;2023-03-20T00:10:16;100232.16;;;6.34;72.01
71145;BME280;58812;47.698;17.726;2023-03-20T00:12:43;100246.69;;;6.30;73.92
71145;BME280;58812;47.698;17.726;2023-03-20T00:17:43;100243.00;;;6.09;74.83
71145;BME280;58812;47.698;17.726;2023-03-20T00:20:13;100247.47;;;5.97;74.91
71145;BME280;58812;47.698;17.726;2023-03-20T00:22:39;100247.94;;;5.91;74.89
71145;BME280;58812;47.698;17.726;2023-03-20T00:25:05;100240.72;;;5.93;75.10
71145;BME280;58812;47.698;17.726;2023-03-20T00:27:31;100239.00;;;5.92;75.46
71145;BME280;58812;47.698;17.726;2023-03-20T00:29:57;100242.84;;;5.88;74.84
71145;BME280;58812;47.698;17.726;2023-03-20T00:32:22;100248.16;;;5.88;75.53
71145;BME280;58812;47.698;17.726;2023-03-20T00:34:48;100252.00;;;5.84;74.70
71145;BME280;58812;47.698;17.726;2023-03-20T00:37:13;100254.16;;;5.79;74.89
71145;BME280;58812;47.698;17.726;2023-03-20T00:39:39;100260.31;;;5.79;75.01
71145;BME280;58812;47.698;17.726;2023-03-20T00:42:06;100256.53;;;5.71;75.67
71145;BME280;58812;47.698;17.726;2023-03-20T00:44:43;100252.28;;;5.68;74.76
71145;BME280;58812;47.698;17.726;2023-03-20T00:47:18;100244.69;;;5.63;75.93
71145;BME280;58812;47.698;17.726;2023-03-20T00:49:46;100254.31;;;5.53;76.18
71145;BME280;58812;47.698;17.726;2023-03-20T00:52:12;100244.16;;;5.47;76.06
71145;BME280;58812;47.698;17.726;2023-03-20T00:54:39;100236.84;;;5.38;76.80
71145;BME280;58812;47.698;17.726;2023-03-20T00:57:44;100237.34;;;5.43;76.39
71145;BME280;58812;47.698;17.726;2023-03-20T01:02:48;100237.03;;;5.24;77.52
71145;BME280;58812;47.698;17.726;2023-03-20T01:05:14;100241.31;;;5.14;77.49
71145;BME280;58812;47.698;17.726;2023-03-20T01:07:39;100241.56;;;5.11;78.10
71145;BME280;58812;47.698;17.726;2023-03-20T01:10:06;100243.00;;;5.15;77.78
71145;BME280;58812;47.698;17.726;2023-03-20T01:12:31;100230.94;;;5.11;77.83
71145;BME280;58812;47.698;17.726;2023-03-20T01:14:57;100235.16;;;5.13;78.74
71145;BME280;58812;47.698;17.726;2023-03-20T01:17:25;100230.94;;;5.11;77.58
71145;BME280;58812;47.698;17.726;2023-03-20T01:19:51;100236.47;;;5.07;77.82
71145;BME280;58812;47.698;17.726;2023-03-20T01:22:17;100233.28;;;5.02;77.47
71145;BME280;58812;47.698;17.726;2023-03-20T01:24:43;100230.97;;;4.98;77.28
71145;BME280;58812;47.698;17.726;2023-03-20T01:27:12;100228.69;;;4.93;77.58
71145;BME280;58812;47.698;17.726;2023-03-20T01:29:38;100231.53;;;4.90;77.79
71145;BME280;58812;47.698;17.726;2023-03-20T01:32:09;100232.72;;;4.86;78.42
71145;BME280;58812;47.698;17.726;2023-03-20T01:34:36;100229.34;;;4.84;79.37
71145;BME280;58812;47.698;17.726;2023-03-20T01:37:02;100229.38;;;4.71;79.44
71145;BME280;58812;47.698;17.726;2023-03-20T01:39:32;100233.09;;;4.69;79.33
71145;BME280;58812;47.698;17.726;2023-03-20T01:41:58;100236.19;;;4.63;79.61
71145;BME280;58812;47.698;17.726;2023-03-20T01:44:28;100236.19;;;4.63;80.54
71145;BME280;58812;47.698;17.726;2023-03-20T01:46:54;100238.72;;;4.64;79.88
71145;BME280;58812;47.698;17.726;2023-03-20T01:51:46;100233.87;;;4.58;79.75
71145;BME280;58812;47.698;17.726;2023-03-20T01:54:22;100238.13;;;4.48;80.67
71145;BME280;58812;47.698;17.726;2023-03-20T01:59:32;100237.16;;;4.49;79.90
71145;BME280;58812;47.698;17.726;2023-03-20T02:01:59;100232.72;;;4.37;79.79
71145;BME280;58812;47.698;17.726;2023-03-20T02:04:29;100241.75;;;4.34;79.79
71145;BME280;58812;47.698;17.726;2023-03-20T02:06:57;100245.78;;;4.27;80.85
71145;BME280;58812;47.698;17.726;2023-03-20T02:09:23;100243.03;;;4.16;81.56
71145;BME280;58812;47.698;17.726;2023-03-20T02:11:48;100238.78;;;4.13;81.21
71145;BME280;58812;47.698;17.726;2023-03-20T02:14:14;100246.41;;;4.18;81.64
71145;BME280;58812;47.698;17.726;2023-03-20T02:16:40;100240.37;;;4.16;81.36
71145;BME280;58812;47.698;17.726;2023-03-20T02:19:11;100245.03;;;4.12;81.52
71145;BME280;58812;47.698;17.726;2023-03-20T02:41:28;100243.84;;;3.91;82.87
71145;BME280;58812;47.698;17.726;2023-03-20T02:47:41;100246.28;;;3.81;82.12
71145;BME280;58812;47.698;17.726;2023-03-20T02:55:46;100263.31;;;3.64;83.29
71145;BME280;58812;47.698;17.726;2023-03-20T02:58:21;100266.88;;;3.51;83.02
71145;BME280;58812;47.698;17.726;2023-03-20T03:01:02;100263.25;;;3.39;85.04
71145;BME280;58812;47.698;17.726;2023-03-20T03:03:37;100262.59;;;3.35;85.12
71145;BME280;58812;47.698;17.726;2023-03-20T03:06:14;100264.72;;;3.43;85.98
71145;BME280;58812;47.698;17.726;2023-03-20T03:08:44;100259.12;;;3.47;85.05
71145;BME280;58812;47.698;17.726;2023-03-20T03:11:12;100267.63;;;3.53;84.08
71145;BME280;58812;47.698;17.726;2023-03-20T03:13:41;100272.34;;;3.47;84.57
71145;BME280;58812;47.698;17.726;2023-03-20T03:16:14;100268.03;;;3.46;84.84
71145;BME280;58812;47.698;17.726;2023-03-20T03:18:42;100268.97;;;3.45;84.56
71145;BME280;58812;47.698;17.726;2023-03-20T03:21:10;100268.97;;;3.45;85.10
71145;BME280;58812;47.698;17.726;2023-03-20T03:23:44;100271.47;;;3.34;85.49
71145;BME280;58812;47.698;17.726;2023-03-20T03:26:19;100272.44;;;3.33;85.59
71145;BME280;58812;47.698;17.726;2023-03-20T03:28:49;100266.47;;;3.30;85.58
71145;BME280;58812;47.698;17.726;2023-03-20T03:31:17;100265.13;;;3.37;85.06
71145;BME280;58812;47.698;17.726;2023-03-20T03:33:46;100269.78;;;3.33;84.03
71145;BME280;58812;47.698;17.726;2023-03-20T03:42:26;100266.97;;;3.22;85.60
71145;BME280;58812;47.698;17.726;2023-03-20T03:47:23;100270.59;;;3.21;86.64
71145;BME280;58812;47.698;17.726;2023-03-20T03:49:59;100271.44;;;3.21;84.91
71145;BME280;58812;47.698;17.726;2023-03-20T03:52:28;100254.72;;;3.21;84.68
71145;BME280;58812;47.698;17.726;2023-03-20T03:55:06;100263.56;;;3.20;85.03
71145;BME280;58812;47.698;17.726;2023-03-20T03:57:46;100266.63;;;3.14;86.57
71145;BME280;58812;47.698;17.726;2023-03-20T04:00:17;100270.44;;;3.10;88.37
71145;BME280;58812;47.698;17.726;2023-03-20T04:02:46;100277.50;;;3.09;88.57
71145;BME280;58812;47.698;17.726;2023-03-20T04:05:14;100277.06;;;3.03;89.69
71145;BME280;58812;47.698;17.726;2023-03-20T04:07:44;100278.94;;;3.01;89.35
71145;BME280;58812;47.698;17.726;2023-03-20T04:10:10;100277.97;;;3.02;90.10
71145;BME280;58812;47.698;17.726;2023-03-20T04:12:39;100276.19;;;3.02;90.15
71145;BME280;58812;47.698;17.726;2023-03-20T04:15:06;100281.41;;;3.04;89.87
71145;BME280;58812;47.698;17.726;2023-03-20T04:17:32;100289.34;;;3.04;89.94
71145;BME280;58812;47.698;17.726;2023-03-20T04:19:58;100281.09;;;3.08;89.80
71145;BME280;58812;47.698;17.726;2023-03-20T04:22:24;100281.75;;;3.12;89.44
71145;BME280;58812;47.698;17.726;2023-03-20T04:24:49;100284.84;;;3.18;88.73
71145;BME280;58812;47.698;17.726;2023-03-20T04:27:15;100296.72;;;3.26;88.63
71145;BME280;58812;47.698;17.726;2023-03-20T04:29:41;100288.50;;;3.30;87.73
71145;BME280;58812;47.698;17.726;2023-03-20T04:32:07;100293.03;;;3.28;88.11
71145;BME280;58812;47.698;17.726;2023-03-20T04:34:33;100305.72;;;3.23;88.70
71145;BME280;58812;47.698;17.726;2023-03-20T04:36:58;100307.06;;;3.16;89.58
71145;BME280;58812;47.698;17.726;2023-03-20T04:39:25;100298.16;;;3.17;89.22
71145;BME280;58812;47.698;17.726;2023-03-20T04:41:51;100307.81;;;3.18;89.49
71145;BME280;58812;47.698;17.726;2023-03-20T04:44:17;100300.94;;;3.15;89.20
71145;BME280;58812;47.698;17.726;2023-03-20T04:46:42;100308.09;;;3.13;89.53
71145;BME280;58812;47.698;17.726;2023-03-20T04:49:07;100313.38;;;3.13;89.82
71145;BME280;58812;47.698;17.726;2023-03-20T04:51:33;100320.06;;;3.19;88.68
71145;BME280;58812;47.698;17.726;2023-03-20T04:53:58;100325.37;;;3.19;88.50
71145;BME280;58812;47.698;17.726;2023-03-20T04:56:24;100326.69;;;3.26;88.24
71145;BME280;58812;47.698;17.726;2023-03-20T04:58:49;100321.00;;;3.32;87.58
71145;BME280;58812;47.698;17.726;2023-03-20T05:01:15;100327.78;;;3.36;87.45
71145;BME280;58812;47.698;17.726;2023-03-20T05:03:40;100325.63;;;3.29;87.54
71145;BME280;58812;47.698;17.726;2023-03-20T05:06:06;100337.62;;;3.20;88.25
71145;BME280;58812;47.698;17.726;2023-03-20T05:08:31;100334.06;;;3.21;88.31
71145;BME280;58812;47.698;17.726;2023-03-20T05:10:57;100338.03;;;3.28;88.43
71145;BME280;58812;47.698;17.726;2023-03-20T05:13:22;100340.06;;;3.37;88.11
71145;BME280;58812;47.698;17.726;2023-03-20T05:15:48;100346.75;;;3.43;88.13
71145;BME280;58812;47.698;17.726;2023-03-20T05:18:13;100339.25;;;3.49;87.59
71145;BME280;58812;47.698;17.726;2023-03-20T05:20:38;100339.25;;;3.49;87.49
71145;BME280;58812;47.698;17.726;2023-03-20T05:23:04;100340.59;;;3.57;86.96
71145;BME280;58812;47.698;17.726;2023-03-20T05:25:30;100341.44;;;3.57;86.71
71145;BME280;58812;47.698;17.726;2023-03-20T05:27:55;100340.91;;;3.65;86.39
71145;BME280;58812;47.698;17.726;2023-03-20T05:30:21;100352.25;;;3.67;85.36
71145;BME280;58812;47.698;17.726;2023-03-20T05:32:50;100360.44;;;3.77;84.91
71145;BME280;58812;47.698;17.726;2023-03-20T05:35:17;100368.38;;;3.77;84.70
71145;BME280;58812;47.698;17.726;2023-03-20T05:37:42;100366.06;;;3.85;85.17
71145;BME280;58812;47.698;17.726;2023-03-20T05:40:11;100362.94;;;3.92;86.03
71145;BME280;58812;47.698;17.726;2023-03-20T05:42:37;100359.06;;;4.11;85.28
71145;BME280;58812;47.698;17.726;2023-03-20T05:45:03;100358.53;;;4.18;84.96
71145;BME280;58812;47.698;17.726;2023-03-20T05:47:29;100361.91;;;4.20;84.83
71145;BME280;58812;47.698;17.726;2023-03-20T05:49:54;100364.81;;;4.30;84.23
71145;BME280;58812;47.698;17.726;2023-03-20T05:52:20;100367.69;;;4.27;84.74
71145;BME280;58812;47.698;17.726;2023-03-20T05:54:45;100367.88;;;4.37;84.55
71145;BME280;58812;47.698;17.726;2023-03-20T05:57:11;100372.34;;;4.49;83.72
71145;BME280;58812;47.698;17.726;2023-03-20T05:59:37;100378.50;;;4.49;83.34
71145;BME280;58812;47.698;17.726;2023-03-20T06:02:02;100368.12;;;4.59;82.84
71145;BME280;58812;47.698;17.726;2023-03-20T06:04:28;100370.88;;;4.70;82.34
71145;BME280;58812;47.698;17.726;2023-03-20T06:06:53;100371.81;;;4.82;81.93
71145;BME280;58812;47.698;17.726;2023-03-20T06:09:19;100379.78;;;4.95;81.60
71145;BME280;58812;47.698;17.726;2023-03-20T06:11:44;100373.19;;;5.00;80.98
71145;BME280;58812;47.698;17.726;2023-03-20T06:14:10;100384.00;;;4.97;80.73
71145;BME280;58812;47.698;17.726;2023-03-20T06:16:35;100387.50;;;5.11;80.48
71145;BME280;58812;47.698;17.726;2023-03-20T06:19:01;100390.75;;;5.27;80.12
71145;BME280;58812;47.698;17.726;2023-03-20T06:21:27;100385.44;;;5.40;79.50
71145;BME280;58812;47.698;17.726;2023-03-20T06:23:52;100387.72;;;5.44;78.75
71145;BME280;58812;47.698;17.726;2023-03-20T06:26:19;100387.53;;;5.47;78.44
71145;BME280;58812;47.698;17.726;2023-03-20T06:28:47;100386.09;;;5.54;78.28
71145;BME280;58812;47.698;17.726;2023-03-20T06:31:12;100388.66;;;5.56;78.21
71145;BME280;58812;47.698;17.726;2023-03-20T06:33:38;100391.03;;;5.72;78.49
71145;BME280;58812;47.698;17.726;2023-03-20T06:36:03;100403.94;;;5.89;78.22
71145;BME280;58812;47.698;17.726;2023-03-20T06:38:29;100399.87;;;5.96;77.87
71145;BME280;58812;47.698;17.726;2023-03-20T06:40:55;100403.69;;;6.05;78.00
71145;BME280;58812;47.698;17.726;2023-03-20T06:43:21;100407.66;;;6.10;78.59
71145;BME280;58812;47.698;17.726;2023-03-20T06:45:46;100407.22;;;6.16;78.75
71145;BME280;58812;47.698;17.726;2023-03-20T06:48:12;100412.94;;;6.34;78.71
71145;BME280;58812;47.698;17.726;2023-03-20T06:50:38;100413.16;;;6.55;77.92
71145;BME280;58812;47.698;17.726;2023-03-20T06:53:03;100410.88;;;6.73;76.76
71145;BME280;58812;47.698;17.726;2023-03-20T06:55:28;100423.13;;;6.98;75.46
71145;BME280;58812;47.698;17.726;2023-03-20T06:57:55;100419.28;;;7.13;74.16
71145;BME280;58812;47.698;17.726;2023-03-20T07:00:21;100425.44;;;7.14;73.42
71145;BME280;58812;47.698;17.726;2023-03-20T07:02:47;100426.41;;;7.02;73.22
71145;BME280;58812;47.698;17.726;2023-03-20T07:05:13;100422.03;;;7.34;72.21
71145;BME280;58812;47.698;17.726;2023-03-20T07:07:39;100427.72;;;7.63;71.84
71145;BME280;58812;47.698;17.726;2023-03-20T07:10:05;100422.50;;;7.73;70.25
71145;BME280;58812;47.698;17.726;2023-03-20T07:12:30;100417.16;;;7.73;69.86
71145;BME280;58812;47.698;17.726;2023-03-20T07:14:56;100420.03;;;7.81;69.63
71145;BME280;58812;47.698;17.726;2023-03-20T07:17:21;100426.06;;;7.94;68.49
71145;BME280;58812;47.698;17.726;2023-03-20T07:19:47;100425.94;;;8.28;68.00
71145;BME280;58812;47.698;17.726;2023-03-20T07:22:23;100428.16;;;8.55;67.10
71145;BME280;58812;47.698;17.726;2023-03-20T07:24:50;100426.59;;;8.73;65.90
71145;BME280;58812;47.698;17.726;2023-03-20T07:27:16;100437.97;;;8.96;65.34
71145;BME280;58812;47.698;17.726;2023-03-20T07:29:42;100438.09;;;8.95;64.14
71145;BME280;58812;47.698;17.726;2023-03-20T07:32:08;100436.31;;;9.26;63.86
71145;BME280;58812;47.698;17.726;2023-03-20T07:34:33;100436.50;;;9.44;62.48
71145;BME280;58812;47.698;17.726;2023-03-20T07:36:58;100425.97;;;9.52;63.55
71145;BME280;58812;47.698;17.726;2023-03-20T07:39:24;100434.66;;;9.84;61.99
71145;BME280;58812;47.698;17.726;2023-03-20T07:41:50;100439.31;;;9.92;61.52
71145;BME280;58812;47.698;17.726;2023-03-20T07:44:15;100437.59;;;9.81;62.04
71145;BME280;58812;47.698;17.726;2023-03-20T07:46:43;100430.56;;;9.90;61.43
71145;BME280;58812;47.698;17.726;2023-03-20T07:49:14;100445.22;;;9.96;60.68
71145;BME280;58812;47.698;17.726;2023-03-20T07:51:46;100441.44;;;10.08;60.16
71145;BME280;58812;47.698;17.726;2023-03-20T07:54:12;100450.06;;;10.21;59.24
71145;BME280;58812;47.698;17.726;2023-03-20T07:56:37;100442.88;;;10.31;59.09
71145;BME280;58812;47.698;17.726;2023-03-20T07:59:03;100440.63;;;10.36;57.82
71145;BME280;58812;47.698;17.726;2023-03-20T08:01:29;100454.28;;;10.72;57.66
71145;BME280;58812;47.698;17.726;2023-03-20T08:03:54;100444.41;;;10.82;55.00
71145;BME280;58812;47.698;17.726;2023-03-20T08:06:20;100446.41;;;11.27;54.49
71145;BME280;58812;47.698;17.726;2023-03-20T08:08:45;100449.94;;;11.55;54.52
71145;BME280;58812;47.698;17.726;2023-03-20T08:11:12;100451.50;;;11.58;53.17
71145;BME280;58812;47.698;17.726;2023-03-20T08:13:37;100458.47;;;11.50;52.53
71145;BME280;58812;47.698;17.726;2023-03-20T08:16:03;100453.09;;;11.78;52.44
71145;BME280;58812;47.698;17.726;2023-03-20T08:18:29;100451.03;;;11.99;51.51
71145;BME280;58812;47.698;17.726;2023-03-20T08:20:54;100456.06;;;12.02;50.50
71145;BME280;58812;47.698;17.726;2023-03-20T08:23:20;100469.16;;;11.88;50.29
71145;BME280;58812;47.698;17.726;2023-03-20T08:25:49;100460.75;;;12.00;50.50
71145;BME280;58812;47.698;17.726;2023-03-20T08:28:16;100458.34;;;11.97;50.71
71145;BME280;58812;47.698;17.726;2023-03-20T08:30:42;100451.66;;;12.29;51.13
71145;BME280;58812;47.698;17.726;2023-03-20T08:33:08;100460.31;;;12.41;51.89
71145;BME280;58812;47.698;17.726;2023-03-20T08:35:33;100459.47;;;12.58;50.87
71145;BME280;58812;47.698;17.726;2023-03-20T08:38:00;100452.69;;;12.72;50.28
71145;BME280;58812;47.698;17.726;2023-03-20T08:40:25;100453.63;;;12.63;49.54
71145;BME280;58812;47.698;17.726;2023-03-20T08:42:51;100460.50;;;12.83;49.03
71145;BME280;58812;47.698;17.726;2023-03-20T08:45:16;100461.13;;;12.77;49.88
71145;BME280;58812;47.698;17.726;2023-03-20T08:47:42;100465.97;;;13.17;49.26
71145;BME280;58812;47.698;17.726;2023-03-20T08:50:08;100464.84;;;13.02;48.86
71145;BME280;58812;47.698;17.726;2023-03-20T08:52:34;100463.84;;;13.03;48.83
71145;BME280;58812;47.698;17.726;2023-03-20T08:54:59;100461.19;;;13.29;46.44
71145;BME280;58812;47.698;17.726;2023-03-20T08:57:25;100472.38;;;13.50;46.04
71145;BME280;58812;47.698;17.726;2023-03-20T08:59:51;100466.38;;;13.56;45.19
71145;BME280;58812;47.698;17.726;2023-03-20T09:02:16;100472.78;;;13.29;45.21
71145;BME280;58812;47.698;17.726;2023-03-20T09:04:42;100471.28;;;13.61;45.44
71145;BME280;58812;47.698;17.726;2023-03-20T09:07:07;100468.25;;;14.06;44.89
71145;BME280;58812;47.698;17.726;2023-03-20T09:09:33;100460.41;;;14.46;44.12
71145;BME280;58812;47.698;17.726;2023-03-20T09:11:59;100472.00;;;14.38;43.71
71145;BME280;58812;47.698;17.726;2023-03-20T09:14:26;100465.66;;;14.47;42.97
71145;BME280;58812;47.698;17.726;2023-03-20T09:16:52;100469.34;;;15.03;42.34
71145;BME280;58812;47.698;17.726;2023-03-20T09:19:18;100460.75;;;15.08;41.97
71145;BME280;58812;47.698;17.726;2023-03-20T09:21:44;100467.09;;;15.39;41.67
71145;BME280;58812;47.698;17.726;2023-03-20T09:24:09;100473.09;;;15.58;41.84
71145;BME280;58812;47.698;17.726;2023-03-20T09:26:36;100475.47;;;16.08;40.56
71145;BME280;58812;47.698;17.726;2023-03-20T09:29:02;100474.37;;;16.17;40.62
71145;BME280;58812;47.698;17.726;2023-03-20T09:31:28;100471.06;;;16.38;39.39
71145;BME280;58812;47.698;17.726;2023-03-20T09:33:53;100476.50;;;16.30;39.13
71145;BME280;58812;47.698;17.726;2023-03-20T09:36:19;100470.50;;;16.20;39.57
71145;BME280;58812;47.698;17.726;2023-03-20T09:38:46;100466.22;;;15.47;41.37
71145;BME280;58812;47.698;17.726;2023-03-20T09:41:30;100470.75;;;16.56;39.72
71145;BME280;58812;47.698;17.726;2023-03-20T09:51:55;100466.91;;;16.27;39.67
71145;BME280;58812;47.698;17.726;2023-03-20T09:54:26;100470.66;;;17.10;38.24
71145;BME280;58812;47.698;17.726;2023-03-20T09:56:54;100467.59;;;17.28;37.24
71145;BME280;58812;47.698;17.726;2023-03-20T09:59:22;100474.06;;;17.27;38.41
71145;BME280;58812;47.698;17.726;2023-03-20T10:01:52;100478.81;;;17.40;37.69
71145;BME280;58812;47.698;17.726;2023-03-20T10:04:18;100474.84;;;18.16;36.88
71145;BME280;58812;47.698;17.726;2023-03-20T10:06:43;100473.59;;;18.33;36.44
71145;BME280;58812;47.698;17.726;2023-03-20T10:09:24;100473.66;;;18.04;36.11
71145;BME280;58812;47.698;17.726;2023-03-20T10:12:15;100469.03;;;17.68;36.85
71145;BME280;58812;47.698;17.726;2023-03-20T10:18:16;100469.34;;;17.73;36.52
71145;BME280;58812;47.698;17.726;2023-03-20T10:20:56;100461.38;;;17.57;37.83
71145;BME280;58812;47.698;17.726;2023-03-20T10:23:52;100464.81;;;17.36;37.69
71145;BME280;58812;47.698;17.726;2023-03-20T10:26:17;100464.94;;;18.66;35.76
71145;BME280;58812;47.698;17.726;2023-03-20T10:28:52;100463.44;;;19.06;34.49
71145;BME280;58812;47.698;17.726;2023-03-20T10:31:28;100456.88;;;19.22;34.88
71145;BME280;58812;47.698;17.726;2023-03-20T10:42:16;100464.66;;;19.60;33.17
71145;BME280;58812;47.698;17.726;2023-03-20T10:47:34;100449.16;;;20.83;30.94
71145;BME280;58812;47.698;17.726;2023-03-20T10:50:05;100453.31;;;21.25;30.85
71145;BME280;58812;47.698;17.726;2023-03-20T10:52:35;100447.47;;;20.68;32.05
71145;BME280;58812;47.698;17.726;2023-03-20T10:55:07;100449.50;;;21.66;30.47
71145;BME280;58812;47.698;17.726;2023-03-20T10:57:38;100444.59;;;19.61;33.16
71145;BME280;58812;47.698;17.726;2023-03-20T11:00:18;100449.12;;;21.42;30.79
71145;BME280;58812;47.698;17.726;2023-03-20T11:02:45;100444.06;;;21.46;31.19
71145;BME280;58812;47.698;17.726;2023-03-20T11:08:06;100438.84;;;19.42;33.52
71145;BME280;58812;47.698;17.726;2023-03-20T11:10:35;100424.31;;;19.22;34.20
71145;BME280;58812;47.698;17.726;2023-03-20T11:16:08;100426.53;;;21.02;31.22
71145;BME280;58812;47.698;17.726;2023-03-20T11:18:35;100423.59;;;21.10;31.15
71145;BME280;58812;47.698;17.726;2023-03-20T11:21:01;100428.59;;;21.33;30.93
71145;BME280;58812;47.698;17.726;2023-03-20T11:23:31;100412.19;;;20.00;33.01
71145;BME280;58812;47.698;17.726;2023-03-20T11:25:59;100410.06;;;19.89;34.31
71145;BME280;58812;47.698;17.726;2023-03-20T11:30:59;100404.94;;;20.41;33.47
71145;BME280;58812;47.698;17.726;2023-03-20T11:33:26;100410.50;;;19.93;34.25
71145;BME280;58812;47.698;17.726;2023-03-20T11:35:55;100401.84;;;20.77;33.03
71145;BME280;58812;47.698;17.726;2023-03-20T11:38:22;100401.34;;;20.14;34.06
71145;BME280;58812;47.698;17.726;2023-03-20T11:40:49;100401.09;;;19.95;34.07
71145;BME280;58812;47.698;17.726;2023-03-20T11:43:21;100393.63;;;20.37;32.87
71145;BME280;58812;47.698;17.726;2023-03-20T11:45:49;100393.91;;;20.89;32.76
71145;BME280;58812;47.698;17.726;2023-03-20T11:48:17;100390.16;;;20.70;33.60
71145;BME280;58812;47.698;17.726;2023-03-20T11:51:04;100390.91;;;21.17;32.71
71145;BME280;58812;47.698;17.726;2023-03-20T11:53:36;100386.53;;;21.29;31.89
71145;BME280;58812;47.698;17.726;2023-03-20T11:56:08;100385.06;;;21.13;33.14
71145;BME280;58812;47.698;17.726;2023-03-20T11:58:54;100386.37;;;20.84;33.87
71145;BME280;58812;47.698;17.726;2023-03-20T12:01:21;100387.91;;;21.51;33.03
71145;BME280;58812;47.698;17.726;2023-03-20T12:06:25;100369.50;;;21.40;33.55
71145;BME280;58812;47.698;17.726;2023-03-20T12:09:00;100372.53;;;20.86;33.63
71145;BME280;58812;47.698;17.726;2023-03-20T12:11:48;100361.59;;;21.19;33.30
71145;BME280;58812;47.698;17.726;2023-03-20T12:14:24;100354.88;;;21.41;33.08
71145;BME280;58812;47.698;17.726;2023-03-20T12:17:40;100349.00;;;21.38;32.63
71145;BME280;58812;47.698;17.726;2023-03-20T12:19:41;100345.50;;;21.69;32.32
71145;BME280;58812;47.698;17.726;2023-03-20T12:22:22;100338.59;;;21.08;34.01
71145;BME280;58812;47.698;17.726;2023-03-20T12:25:02;100347.81;;;21.07;33.93
71145;BME280;58812;47.698;17.726;2023-03-20T12:27:43;100347.03;;;21.51;33.11
71145;BME280;58812;47.698;17.726;2023-03-20T12:30:17;100336.09;;;21.00;34.97
71145;BME280;58812;47.698;17.726;2023-03-20T12:32:57;100337.69;;;21.34;33.73
71145;BME280;58812;47.698;17.726;2023-03-20T12:35:30;100332.69;;;21.31;34.19
71145;BME280;58812;47.698;17.726;2023-03-20T12:37:57;100335.31;;;20.73;35.25
71145;BME280;58812;47.698;17.726;2023-03-20T12:40:43;100336.75;;;20.69;35.65
71145;BME280;58812;47.698;17.726;2023-03-20T12:43:25;100325.91;;;20.49;35.47
71145;BME280;58812;47.698;17.726;2023-03-20T12:46:08;100325.22;;;20.20;37.04
71145;BME280;58812;47.698;17.726;2023-03-20T12:57:40;100312.31;;;20.56;36.28
71145;BME280;58812;47.698;17.726;2023-03-20T13:00:19;100308.94;;;20.60;35.82
71145;BME280;58812;47.698;17.726;2023-03-20T13:03:14;100310.63;;;20.41;36.41
71145;BME280;58812;47.698;17.726;2023-03-20T13:06:31;100314.78;;;20.17;36.20
71145;BME280;58812;47.698;17.726;2023-03-20T13:11:30;100308.94;;;20.40;35.83
71145;BME280;58812;47.698;17.726;2023-03-20T13:16:39;100296.66;;;21.36;34.91
71145;BME280;58812;47.698;17.726;2023-03-20T13:37:50;100301.63;;;20.67;36.99
71145;BME280;58812;47.698;17.726;2023-03-20T13:40:25;100298.03;;;20.80;36.67
71145;BME280;58812;47.698;17.726;2023-03-20T13:45:37;100299.31;;;20.31;37.11
71145;BME280;58812;47.698;17.726;2023-03-20T13:48:26;100290.78;;;20.47;37.13
71145;BME280;58812;47.698;17.726;2023-03-20T14:02:06;100283.25;;;19.42;40.58
71145;BME280;58812;47.698;17.726;2023-03-20T14:04:37;100279.62;;;19.76;39.37
71145;BME280;58812;47.698;17.726;2023-03-20T14:07:30;100282.06;;;19.58;39.33
71145;BME280;58812;47.698;17.726;2023-03-20T14:09:55;100280.63;;;19.62;39.34
71145;BME280;58812;47.698;17.726;2023-03-20T14:12:25;100269.16;;;19.73;39.33
71145;BME280;58812;47.698;17.726;2023-03-20T14:14:58;100272.97;;;19.31;39.56
71145;BME280;58812;47.698;17.726;2023-03-20T14:17:29;100273.38;;;20.02;39.05
71145;BME280;58812;47.698;17.726;2023-03-20T14:19:56;100276.72;;;20.37;38.28
71145;BME280;58812;47.698;17.726;2023-03-20T14:22:35;100277.13;;;20.14;38.67
71145;BME280;58812;47.698;17.726;2023-03-20T14:25:05;100272.75;;;20.07;38.94
71145;BME280;58812;47.698;17.726;2023-03-20T14:27:53;100261.44;;;19.15;40.42
71145;BME280;58812;47.698;17.726;2023-03-20T14:35:41;100273.34;;;19.69;39.32
71145;BME280;58812;47.698;17.726;2023-03-20T14:38:25;100285.56;;;19.45;39.60
71145;BME280;58812;47.698;17.726;2023-03-20T14:47:04;100261.41;;;19.09;40.32
71145;BME280;58812;47.698;17.726;2023-03-20T14:49:50;100270.28;;;19.37;40.09
71145;BME280;58812;47.698;17.726;2023-03-20T14:52:41;100263.59;;;19.33;40.02
71145;BME280;58812;47.698;17.726;2023-03-20T14:55:28;100262.59;;;19.54;39.82
71145;BME280;58812;47.698;17.726;2023-03-20T14:58:26;100259.59;;;19.23;38.63
71145;BME280;58812;47.698;17.726;2023-03-20T15:00:50;100268.22;;;19.46;38.68
71145;BME280;58812;47.698;17.726;2023-03-20T15:03:16;100264.00;;;18.82;39.69
71145;BME280;58812;47.698;17.726;2023-03-20T15:05:42;100265.59;;;19.11;39.42
71145;BME280;58812;47.698;17.726;2023-03-20T15:08:23;100260.16;;;19.11;39.52
71145;BME280;58812;47.698;17.726;2023-03-20T15:10:55;100251.28;;;18.89;40.05
71145;BME280;58812;47.698;17.726;2023-03-20T15:13:21;100261.75;;;18.92;40.16
71145;BME280;58812;47.698;17.726;2023-03-20T15:15:57;100257.13;;;18.86;40.40